sensor_id;sensor_type;location;lat;lon;timestamp;pressure;altitude;pressure_sealevel;temperature;humidity
29839;BME280;18669;53.356;-1.464;2023-01-28T00:01:24;102142.06;;;5.38;100.00
29839;BME280;18669;53.356;-1.464;2023-01-28T00:03:50;102142.97;;;5.41;100.00
29839;BME280;18669;53.356;-1.464;2023-01-28T00:06:16;102139.59;;;5.45;100.00
29839;BME280;18669;53.356;-1.464;2023-01-28T00:08:43;102138.88;;;5.50;100.00
29839;BME280;18669;53.356;-1.464;2023-01-28T00:11:10;102132.91;;;5.56;100.00
29839;BME280;18669;53.356;-1.464;2023-01-28T00:13:36;102144.34;;;5.61;100.00
29839;BME280;18669;53.356;-1.464;2023-01-28T00:16:05;102143.56;;;5.64;100.00
29839;BME280;18669;53.356;-1.464;2023-01-28T00:18:33;102140.97;;;5.65;100.00
29839;BME280;18669;53.356;-1.464;2023-01-28T00:21:00;102134.97;;;5.70;100.00
29839;BME280;18669;53.356;-1.464;2023-01-28T00:23:27;102127.28;;;5.76;100.00
29839;BME280;18669;53.356;-1.464;2023-01-28T00:25:53;102129.13;;;5.80;100.00
29839;BME280;18669;53.356;-1.464;2023-01-28T00:28:20;102130.84;;;5.79;100.00
29839;BME280;18669;53.356;-1.464;2023-01-28T00:30:46;102131.78;;;5.81;100.00
29839;BME280;18669;53.356;-1.464;2023-01-28T00:33:12;102132.75;;;5.87;100.00
29839;BME280;18669;53.356;-1.464;2023-01-28T00:35:38;102136.31;;;5.90;100.00
29839;BME280;18669;53.356;-1.464;2023-01-28T00:38:04;102134.59;;;5.91;100.00
29839;BME280;18669;53.356;-1.464;2023-01-28T00:40:30;102126.78;;;5.92;100.00
29839;BME280;18669;53.356;-1.464;2023-01-28T00:42:56;102124.19;;;5.92;100.00
29839;BME280;18669;53.356;-1.464;2023-01-28T00:45:22;102126.69;;;5.88;100.00
29839;BME280;18669;53.356;-1.464;2023-01-28T00:47:48;102118.81;;;5.86;100.00
29839;BME280;18669;53.356;-1.464;2023-01-28T00:50:14;102118.94;;;5.92;100.00
29839;BME280;18669;53.356;-1.464;2023-01-28T00:52:41;102125.88;;;5.90;100.00
29839;BME280;18669;53.356;-1.464;2023-01-28T00:55:07;102119.78;;;5.91;100.00
29839;BME280;18669;53.356;-1.464;2023-01-28T00:57:33;102125.88;;;5.90;100.00
29839;BME280;18669;53.356;-1.464;2023-01-28T00:59:59;102124.22;;;5.94;100.00
29839;BME280;18669;53.356;-1.464;2023-01-28T01:02:25;102126.75;;;5.91;100.00
29839;BME280;18669;53.356;-1.464;2023-01-28T01:04:52;102120.66;;;5.90;100.00
29839;BME280;18669;53.356;-1.464;2023-01-28T01:07:24;102126.78;;;5.92;100.00
29839;BME280;18669;53.356;-1.464;2023-01-28T01:10:02;102123.31;;;5.93;100.00
29839;BME280;18669;53.356;-1.464;2023-01-28T01:12:27;102131.09;;;5.90;100.00
29839;BME280;18669;53.356;-1.464;2023-01-28T01:14:53;102123.25;;;5.90;100.00
29839;BME280;18669;53.356;-1.464;2023-01-28T01:17:19;102125.00;;;5.90;100.00
29839;BME280;18669;53.356;-1.464;2023-01-28T01:19:46;102114.56;;;5.91;100.00
29839;BME280;18669;53.356;-1.464;2023-01-28T01:22:12;102109.31;;;5.90;100.00
29839;BME280;18669;53.356;-1.464;2023-01-28T01:24:38;102114.50;;;5.88;100.00
29839;BME280;18669;53.356;-1.464;2023-01-28T01:27:03;102110.25;;;5.92;100.00
29839;BME280;18669;53.356;-1.464;2023-01-28T01:29:30;102111.03;;;5.89;100.00
29839;BME280;18669;53.356;-1.464;2023-01-28T01:31:58;102110.94;;;5.85;100.00
29839;BME280;18669;53.356;-1.464;2023-01-28T01:34:24;102102.28;;;5.87;100.00
29839;BME280;18669;53.356;-1.464;2023-01-28T01:36:50;102105.81;;;5.89;100.00
29839;BME280;18669;53.356;-1.464;2023-01-28T01:39:15;102103.19;;;5.88;100.00
29839;BME280;18669;53.356;-1.464;2023-01-28T01:41:41;102095.28;;;5.85;100.00
29839;BME280;18669;53.356;-1.464;2023-01-28T01:46:52;102094.28;;;5.79;100.00
29839;BME280;18669;53.356;-1.464;2023-01-28T01:49:20;102093.34;;;5.76;100.00
29839;BME280;18669;53.356;-1.464;2023-01-28T01:51:50;102100.28;;;5.75;100.00
29839;BME280;18669;53.356;-1.464;2023-01-28T01:54:18;102109.00;;;5.76;100.00
29839;BME280;18669;53.356;-1.464;2023-01-28T01:56:45;102112.47;;;5.75;100.00
29839;BME280;18669;53.356;-1.464;2023-01-28T01:59:14;102105.50;;;5.75;100.00
29839;BME280;18669;53.356;-1.464;2023-01-28T02:01:42;102091.53;;;5.73;100.00
29839;BME280;18669;53.356;-1.464;2023-01-28T02:06:35;102098.50;;;5.73;100.00
29839;BME280;18669;53.356;-1.464;2023-01-28T02:09:05;102105.47;;;5.74;100.00
29839;BME280;18669;53.356;-1.464;2023-01-28T02:11:31;102095.81;;;5.71;100.00
29839;BME280;18669;53.356;-1.464;2023-01-28T02:13:58;102085.47;;;5.74;100.00
29839;BME280;18669;53.356;-1.464;2023-01-28T02:16:26;102083.66;;;5.72;100.00
29839;BME280;18669;53.356;-1.464;2023-01-28T02:18:53;102085.13;;;5.60;100.00
29839;BME280;18669;53.356;-1.464;2023-01-28T02:24:06;102063.91;;;5.45;100.00
29839;BME280;18669;53.356;-1.464;2023-01-28T02:26:41;102059.38;;;5.37;100.00
29839;BME280;18669;53.356;-1.464;2023-01-28T02:29:28;102056.88;;;5.42;100.00
29839;BME280;18669;53.356;-1.464;2023-01-28T02:34:42;102057.84;;;5.46;100.00
29839;BME280;18669;53.356;-1.464;2023-01-28T02:39:46;102053.25;;;5.37;100.00
29839;BME280;18669;53.356;-1.464;2023-01-28T02:42:14;102063.84;;;5.43;100.00
29839;BME280;18669;53.356;-1.464;2023-01-28T02:44:42;102066.63;;;5.49;100.00
29839;BME280;18669;53.356;-1.464;2023-01-28T02:47:09;102055.34;;;5.50;100.00
29839;BME280;18669;53.356;-1.464;2023-01-28T02:49:54;102063.94;;;5.46;100.00
29839;BME280;18669;53.356;-1.464;2023-01-28T02:57:56;102076.56;;;5.28;100.00
29839;BME280;18669;53.356;-1.464;2023-01-28T03:00:43;102075.56;;;5.24;100.00
29839;BME280;18669;53.356;-1.464;2023-01-28T03:03:14;102072.88;;;5.19;100.00
29839;BME280;18669;53.356;-1.464;2023-01-28T03:05:42;102072.81;;;5.18;100.00
29839;BME280;18669;53.356;-1.464;2023-01-28T03:08:32;102059.56;;;5.08;100.00
29839;BME280;18669;53.356;-1.464;2023-01-28T03:11:29;102062.84;;;5.01;100.00
29839;BME280;18669;53.356;-1.464;2023-01-28T03:14:15;102071.34;;;4.94;100.00
29839;BME280;18669;53.356;-1.464;2023-01-28T03:17:01;102078.91;;;4.83;100.00
29839;BME280;18669;53.356;-1.464;2023-01-28T03:19:47;102060.44;;;4.75;100.00
29839;BME280;18669;53.356;-1.464;2023-01-28T03:22:31;102067.28;;;4.72;100.00
29839;BME280;18669;53.356;-1.464;2023-01-28T03:25:17;102057.53;;;4.65;100.00
29839;BME280;18669;53.356;-1.464;2023-01-28T03:28:05;102063.50;;;4.60;100.00
29839;BME280;18669;53.356;-1.464;2023-01-28T03:33:51;102066.47;;;4.42;100.00
29839;BME280;18669;53.356;-1.464;2023-01-28T03:36:36;102062.81;;;4.36;100.00
29839;BME280;18669;53.356;-1.464;2023-01-28T03:39:34;102064.38;;;4.29;100.00
29839;BME280;18669;53.356;-1.464;2023-01-28T03:42:08;102070.97;;;4.16;100.00
29839;BME280;18669;53.356;-1.464;2023-01-28T03:44:34;102078.50;;;4.07;100.00
29839;BME280;18669;53.356;-1.464;2023-01-28T03:47:15;102079.84;;;3.94;100.00
29839;BME280;18669;53.356;-1.464;2023-01-28T03:49:43;102073.41;;;3.81;100.00
29839;BME280;18669;53.356;-1.464;2023-01-28T03:52:10;102077.38;;;3.69;100.00
29839;BME280;18669;53.356;-1.464;2023-01-28T03:54:38;102082.94;;;3.53;100.00
29839;BME280;18669;53.356;-1.464;2023-01-28T03:57:03;102087.69;;;3.39;100.00
29839;BME280;18669;53.356;-1.464;2023-01-28T03:59:31;102077.81;;;3.28;100.00
29839;BME280;18669;53.356;-1.464;2023-01-28T04:01:56;102080.84;;;3.15;100.00
29839;BME280;18669;53.356;-1.464;2023-01-28T04:04:22;102082.50;;;3.13;100.00
29839;BME280;18669;53.356;-1.464;2023-01-28T04:06:52;102077.19;;;3.10;100.00
29839;BME280;18669;53.356;-1.464;2023-01-28T04:09:20;102082.97;;;3.01;100.00
29839;BME280;18669;53.356;-1.464;2023-01-28T04:11:46;102087.22;;;2.97;100.00
29839;BME280;18669;53.356;-1.464;2023-01-28T04:14:13;102080.88;;;2.91;100.00
29839;BME280;18669;53.356;-1.464;2023-01-28T04:16:40;102080.63;;;2.83;100.00
29839;BME280;18669;53.356;-1.464;2023-01-28T04:19:10;102085.00;;;2.84;100.00
29839;BME280;18669;53.356;-1.464;2023-01-28T04:21:38;102083.00;;;2.77;100.00
29839;BME280;18669;53.356;-1.464;2023-01-28T04:24:03;102085.56;;;2.75;100.00
29839;BME280;18669;53.356;-1.464;2023-01-28T04:26:29;102086.44;;;2.76;100.00
29839;BME280;18669;53.356;-1.464;2023-01-28T04:28:55;102064.59;;;2.71;100.00
29839;BME280;18669;53.356;-1.464;2023-01-28T04:31:21;102072.34;;;2.69;100.00
29839;BME280;18669;53.356;-1.464;2023-01-28T04:33:48;102078.59;;;2.74;100.00
29839;BME280;18669;53.356;-1.464;2023-01-28T04:36:15;102097.06;;;2.82;100.00
29839;BME280;18669;53.356;-1.464;2023-01-28T04:38:41;102099.03;;;2.89;100.00
29839;BME280;18669;53.356;-1.464;2023-01-28T04:41:07;102098.16;;;2.89;100.00
29839;BME280;18669;53.356;-1.464;2023-01-28T04:43:34;102095.34;;;2.82;100.00
29839;BME280;18669;53.356;-1.464;2023-01-28T04:46:00;102099.41;;;2.74;100.00
29839;BME280;18669;53.356;-1.464;2023-01-28T04:48:25;102096.69;;;2.71;100.00
29839;BME280;18669;53.356;-1.464;2023-01-28T04:50:52;102097.25;;;2.62;100.00
29839;BME280;18669;53.356;-1.464;2023-01-28T04:53:18;102098.47;;;2.49;100.00
29839;BME280;18669;53.356;-1.464;2023-01-28T04:55:44;102103.53;;;2.45;100.00
29839;BME280;18669;53.356;-1.464;2023-01-28T04:58:09;102100.94;;;2.45;100.00
29839;BME280;18669;53.356;-1.464;2023-01-28T05:00:36;102106.69;;;2.36;100.00
29839;BME280;18669;53.356;-1.464;2023-01-28T05:03:01;102116.25;;;2.37;100.00
29839;BME280;18669;53.356;-1.464;2023-01-28T05:05:27;102113.28;;;2.28;100.00
29839;BME280;18669;53.356;-1.464;2023-01-28T05:07:53;102113.44;;;2.32;100.00
29839;BME280;18669;53.356;-1.464;2023-01-28T05:10:20;102123.00;;;2.33;100.00
29839;BME280;18669;53.356;-1.464;2023-01-28T05:12:46;102127.25;;;2.31;100.00
29839;BME280;18669;53.356;-1.464;2023-01-28T05:15:13;102133.28;;;2.30;100.00
29839;BME280;18669;53.356;-1.464;2023-01-28T05:17:38;102134.34;;;2.35;100.00
29839;BME280;18669;53.356;-1.464;2023-01-28T05:20:05;102124.91;;;2.37;100.00
29839;BME280;18669;53.356;-1.464;2023-01-28T05:22:30;102122.50;;;2.42;100.00
29839;BME280;18669;53.356;-1.464;2023-01-28T05:24:57;102121.81;;;2.48;100.00
29839;BME280;18669;53.356;-1.464;2023-01-28T05:27:23;102110.50;;;2.46;100.00
29839;BME280;18669;53.356;-1.464;2023-01-28T05:29:49;102109.63;;;2.45;100.00
29839;BME280;18669;53.356;-1.464;2023-01-28T05:32:15;102101.88;;;2.47;100.00
29839;BME280;18669;53.356;-1.464;2023-01-28T05:34:41;102103.47;;;2.43;100.00
29839;BME280;18669;53.356;-1.464;2023-01-28T05:37:07;102100.06;;;2.44;100.00
29839;BME280;18669;53.356;-1.464;2023-01-28T05:39:33;102096.78;;;2.50;100.00
29839;BME280;18669;53.356;-1.464;2023-01-28T05:41:59;102089.16;;;2.54;100.00
29839;BME280;18669;53.356;-1.464;2023-01-28T05:44:25;102095.41;;;2.60;100.00
29839;BME280;18669;53.356;-1.464;2023-01-28T05:46:50;102098.22;;;2.66;100.00
29839;BME280;18669;53.356;-1.464;2023-01-28T05:49:16;102106.97;;;2.68;100.00
29839;BME280;18669;53.356;-1.464;2023-01-28T05:51:42;102098.34;;;2.69;100.00
29839;BME280;18669;53.356;-1.464;2023-01-28T05:54:08;102088.31;;;2.80;100.00
29839;BME280;18669;53.356;-1.464;2023-01-28T05:56:34;102088.66;;;2.89;100.00
29839;BME280;18669;53.356;-1.464;2023-01-28T05:59:01;102079.47;;;3.01;100.00
29839;BME280;18669;53.356;-1.464;2023-01-28T06:01:27;102072.63;;;3.03;100.00
29839;BME280;18669;53.356;-1.464;2023-01-28T06:03:53;102079.59;;;3.04;100.00
29839;BME280;18669;53.356;-1.464;2023-01-28T06:06:20;102078.09;;;3.10;100.00
29839;BME280;18669;53.356;-1.464;2023-01-28T06:08:46;102076.25;;;3.08;100.00
29839;BME280;18669;53.356;-1.464;2023-01-28T06:11:12;102070.19;;;3.07;100.00
29839;BME280;18669;53.356;-1.464;2023-01-28T06:13:38;102071.25;;;3.12;100.00
29839;BME280;18669;53.356;-1.464;2023-01-28T06:16:06;102069.69;;;3.18;100.00
29839;BME280;18669;53.356;-1.464;2023-01-28T06:18:32;102078.34;;;3.18;100.00
29839;BME280;18669;53.356;-1.464;2023-01-28T06:20:58;102082.81;;;3.22;100.00
29839;BME280;18669;53.356;-1.464;2023-01-28T06:23:25;102088.06;;;3.24;100.00
29839;BME280;18669;53.356;-1.464;2023-01-28T06:25:54;102079.72;;;3.34;100.00
29839;BME280;18669;53.356;-1.464;2023-01-28T06:28:20;102078.88;;;3.34;100.00
29839;BME280;18669;53.356;-1.464;2023-01-28T06:30:48;102083.16;;;3.33;100.00
29839;BME280;18669;53.356;-1.464;2023-01-28T06:33:14;102078.06;;;3.36;100.00
29839;BME280;18669;53.356;-1.464;2023-01-28T06:35:41;102080.56;;;3.33;100.00
29839;BME280;18669;53.356;-1.464;2023-01-28T06:38:07;102074.94;;;3.21;100.00
29839;BME280;18669;53.356;-1.464;2023-01-28T06:40:33;102079.06;;;3.14;100.00
29839;BME280;18669;53.356;-1.464;2023-01-28T06:42:58;102074.34;;;3.02;100.00
29839;BME280;18669;53.356;-1.464;2023-01-28T06:45:24;102077.56;;;2.95;100.00
29839;BME280;18669;53.356;-1.464;2023-01-28T06:47:51;102080.03;;;2.90;100.00
29839;BME280;18669;53.356;-1.464;2023-01-28T06:50:17;102071.09;;;2.83;100.00
29839;BME280;18669;53.356;-1.464;2023-01-28T06:52:42;102075.47;;;2.84;100.00
29839;BME280;18669;53.356;-1.464;2023-01-28T06:55:08;102077.88;;;2.78;100.00
29839;BME280;18669;53.356;-1.464;2023-01-28T06:57:36;102079.44;;;2.73;100.00
29839;BME280;18669;53.356;-1.464;2023-01-28T07:00:03;102071.34;;;2.65;100.00
29839;BME280;18669;53.356;-1.464;2023-01-28T07:02:29;102071.06;;;2.58;100.00
29839;BME280;18669;53.356;-1.464;2023-01-28T07:04:55;102060.41;;;2.50;100.00
29839;BME280;18669;53.356;-1.464;2023-01-28T07:07:20;102064.94;;;2.31;100.00
29839;BME280;18669;53.356;-1.464;2023-01-28T07:09:46;102063.78;;;2.23;100.00
29839;BME280;18669;53.356;-1.464;2023-01-28T07:12:12;102066.09;;;2.15;100.00
29839;BME280;18669;53.356;-1.464;2023-01-28T07:14:38;102074.66;;;2.13;100.00
29839;BME280;18669;53.356;-1.464;2023-01-28T07:17:04;102084.09;;;2.11;100.00
29839;BME280;18669;53.356;-1.464;2023-01-28T07:19:30;102084.06;;;2.09;100.00
29839;BME280;18669;53.356;-1.464;2023-01-28T07:21:56;102097.06;;;2.11;100.00
29839;BME280;18669;53.356;-1.464;2023-01-28T07:24:25;102102.03;;;2.04;100.00
29839;BME280;18669;53.356;-1.464;2023-01-28T07:26:51;102104.22;;;1.93;100.00
29839;BME280;18669;53.356;-1.464;2023-01-28T07:29:17;102107.50;;;1.89;100.00
29839;BME280;18669;53.356;-1.464;2023-01-28T07:31:43;102097.09;;;1.88;100.00
29839;BME280;18669;53.356;-1.464;2023-01-28T07:34:09;102091.53;;;1.78;100.00
29839;BME280;18669;53.356;-1.464;2023-01-28T07:36:35;102101.78;;;1.75;100.00
29839;BME280;18669;53.356;-1.464;2023-01-28T07:39:01;102106.03;;;1.73;100.00
29839;BME280;18669;53.356;-1.464;2023-01-28T07:41:26;102113.97;;;1.78;100.00
29839;BME280;18669;53.356;-1.464;2023-01-28T07:43:52;102103.56;;;1.76;100.00
29839;BME280;18669;53.356;-1.464;2023-01-28T07:46:18;102114.59;;;1.71;100.00
29839;BME280;18669;53.356;-1.464;2023-01-28T07:48:44;102116.22;;;1.69;100.00
29839;BME280;18669;53.356;-1.464;2023-01-28T07:51:10;102117.75;;;1.63;100.00
29839;BME280;18669;53.356;-1.464;2023-01-28T07:53:36;102117.75;;;1.63;100.00
29839;BME280;18669;53.356;-1.464;2023-01-28T07:56:02;102118.44;;;1.59;100.00
29839;BME280;18669;53.356;-1.464;2023-01-28T07:58:29;102121.09;;;1.61;100.00
29839;BME280;18669;53.356;-1.464;2023-01-28T08:00:56;102118.44;;;1.59;100.00
29839;BME280;18669;53.356;-1.464;2023-01-28T08:03:23;102109.53;;;1.53;100.00
29839;BME280;18669;53.356;-1.464;2023-01-28T08:05:50;102112.13;;;1.53;100.00
29839;BME280;18669;53.356;-1.464;2023-01-28T08:08:17;102120.75;;;1.52;100.00
29839;BME280;18669;53.356;-1.464;2023-01-28T08:10:44;102116.38;;;1.51;100.00
29839;BME280;18669;53.356;-1.464;2023-01-28T08:13:10;102109.41;;;1.49;100.00
29839;BME280;18669;53.356;-1.464;2023-01-28T08:15:37;102109.66;;;1.56;100.00
29839;BME280;18669;53.356;-1.464;2023-01-28T08:18:03;102102.94;;;1.61;100.00
29839;BME280;18669;53.356;-1.464;2023-01-28T08:20:29;102109.06;;;1.63;100.00
29839;BME280;18669;53.356;-1.464;2023-01-28T08:23:08;102103.19;;;1.67;100.00
29839;BME280;18669;53.356;-1.464;2023-01-28T08:25:35;102100.53;;;1.66;100.00
29839;BME280;18669;53.356;-1.464;2023-01-28T08:28:02;102089.50;;;1.71;100.00
29839;BME280;18669;53.356;-1.464;2023-01-28T08:30:27;102087.03;;;1.74;100.00
29839;BME280;18669;53.356;-1.464;2023-01-28T08:32:57;102089.72;;;1.76;100.00
29839;BME280;18669;53.356;-1.464;2023-01-28T08:35:24;102087.94;;;1.75;100.00
29839;BME280;18669;53.356;-1.464;2023-01-28T08:37:50;102087.56;;;1.66;100.00
29839;BME280;18669;53.356;-1.464;2023-01-28T08:40:16;102083.56;;;1.74;100.00
29839;BME280;18669;53.356;-1.464;2023-01-28T08:42:51;102091.53;;;1.78;100.00
29839;BME280;18669;53.356;-1.464;2023-01-28T08:45:18;102085.75;;;1.86;100.00
29839;BME280;18669;53.356;-1.464;2023-01-28T08:47:50;102085.94;;;1.90;100.00
29839;BME280;18669;53.356;-1.464;2023-01-28T08:50:18;102088.69;;;1.95;100.00
29839;BME280;18669;53.356;-1.464;2023-01-28T08:52:44;102081.69;;;1.92;100.00
29839;BME280;18669;53.356;-1.464;2023-01-28T08:55:11;102077.31;;;1.91;100.00
29839;BME280;18669;53.356;-1.464;2023-01-28T08:57:37;102072.25;;;1.94;100.00
29839;BME280;18669;53.356;-1.464;2023-01-28T09:00:04;102074.00;;;1.96;100.00
29839;BME280;18669;53.356;-1.464;2023-01-28T09:02:30;102079.25;;;1.97;100.00
29839;BME280;18669;53.356;-1.464;2023-01-28T09:04:56;102089.81;;;2.02;100.00
29839;BME280;18669;53.356;-1.464;2023-01-28T09:07:22;102091.84;;;2.09;100.00
29839;BME280;18669;53.356;-1.464;2023-01-28T09:09:50;102085.16;;;2.16;100.00
29839;BME280;18669;53.356;-1.464;2023-01-28T09:12:16;102097.47;;;2.21;100.00
29839;BME280;18669;53.356;-1.464;2023-01-28T09:14:41;102096.88;;;2.29;100.00
29839;BME280;18669;53.356;-1.464;2023-01-28T09:17:07;102089.38;;;2.36;100.00
29839;BME280;18669;53.356;-1.464;2023-01-28T09:21:07;102085.56;;;2.27;100.00
29839;BME280;18669;53.356;-1.464;2023-01-28T09:23:34;102092.75;;;2.34;100.00
29839;BME280;18669;53.356;-1.464;2023-01-28T09:26:02;102092.75;;;2.34;100.00
29839;BME280;18669;53.356;-1.464;2023-01-28T09:28:28;102073.81;;;2.14;100.00
29839;BME280;18669;53.356;-1.464;2023-01-28T09:31:06;102098.28;;;2.43;100.00
29839;BME280;18669;53.356;-1.464;2023-01-28T09:33:34;102102.00;;;2.50;100.00
29839;BME280;18669;53.356;-1.464;2023-01-28T09:36:04;102096.78;;;2.50;100.00
29839;BME280;18669;53.356;-1.464;2023-01-28T09:38:31;102111.34;;;2.69;100.00
29839;BME280;18669;53.356;-1.464;2023-01-28T09:40:58;102117.25;;;2.89;100.00
29839;BME280;18669;53.356;-1.464;2023-01-28T09:43:47;102115.06;;;3.55;100.00
29839;BME280;18669;53.356;-1.464;2023-01-28T09:46:33;102116.69;;;4.06;100.00
29839;BME280;18669;53.356;-1.464;2023-01-28T09:49:13;102111.06;;;4.21;100.00
29839;BME280;18669;53.356;-1.464;2023-01-28T09:51:46;102127.78;;;4.29;100.00
29839;BME280;18669;53.356;-1.464;2023-01-28T09:57:18;102119.88;;;4.87;100.00
29839;BME280;18669;53.356;-1.464;2023-01-28T09:59:45;102113.63;;;4.82;100.00
29839;BME280;18669;53.356;-1.464;2023-01-28T10:02:41;102123.09;;;5.11;100.00
29839;BME280;18669;53.356;-1.464;2023-01-28T10:08:24;102109.94;;;5.78;100.00
29839;BME280;18669;53.356;-1.464;2023-01-28T10:14:03;102121.59;;;7.23;100.00
29839;BME280;18669;53.356;-1.464;2023-01-28T10:17:02;102115.13;;;8.16;100.00
29839;BME280;18669;53.356;-1.464;2023-01-28T10:19:28;102116.06;;;8.95;100.00
29839;BME280;18669;53.356;-1.464;2023-01-28T10:22:06;102115.94;;;9.84;100.00
29839;BME280;18669;53.356;-1.464;2023-01-28T10:24:51;102104.16;;;11.01;100.00
29839;BME280;18669;53.356;-1.464;2023-01-28T10:27:22;102116.44;;;11.75;100.00
29839;BME280;18669;53.356;-1.464;2023-01-28T10:29:49;102114.59;;;12.24;98.48
29839;BME280;18669;53.356;-1.464;2023-01-28T10:32:35;102120.81;;;11.73;93.51
29839;BME280;18669;53.356;-1.464;2023-01-28T10:35:03;102127.81;;;10.97;97.52
29839;BME280;18669;53.356;-1.464;2023-01-28T10:37:33;102120.84;;;11.19;97.95
29839;BME280;18669;53.356;-1.464;2023-01-28T10:40:00;102128.72;;;12.00;94.27
29839;BME280;18669;53.356;-1.464;2023-01-28T10:46:27;102099.75;;;11.75;88.53
29839;BME280;18669;53.356;-1.464;2023-01-28T10:51:38;102123.50;;;11.21;90.98
29839;BME280;18669;53.356;-1.464;2023-01-28T10:54:26;102119.91;;;10.84;94.79
29839;BME280;18669;53.356;-1.464;2023-01-28T10:57:01;102116.19;;;10.33;95.62
29839;BME280;18669;53.356;-1.464;2023-01-28T10:59:32;102115.91;;;9.77;98.19
29839;BME280;18669;53.356;-1.464;2023-01-28T11:02:31;102123.47;;;9.36;100.00
29839;BME280;18669;53.356;-1.464;2023-01-28T11:05:18;102135.38;;;8.99;100.00
29839;BME280;18669;53.356;-1.464;2023-01-28T11:07:48;102133.19;;;8.59;100.00
29839;BME280;18669;53.356;-1.464;2023-01-28T11:10:31;102132.97;;;8.45;100.00
29839;BME280;18669;53.356;-1.464;2023-01-28T11:13:00;102135.38;;;8.28;100.00
29839;BME280;18669;53.356;-1.464;2023-01-28T11:15:28;102140.44;;;8.15;100.00
29839;BME280;18669;53.356;-1.464;2023-01-28T11:18:00;102148.34;;;8.17;100.00
29839;BME280;18669;53.356;-1.464;2023-01-28T11:20:32;102133.44;;;8.11;100.00
29839;BME280;18669;53.356;-1.464;2023-01-28T11:23:00;102134.25;;;8.07;100.00
29839;BME280;18669;53.356;-1.464;2023-01-28T11:27:52;102131.69;;;8.12;100.00
29839;BME280;18669;53.356;-1.464;2023-01-28T11:30:22;102131.69;;;8.13;100.00
29839;BME280;18669;53.356;-1.464;2023-01-28T11:33:36;102109.03;;;8.17;100.00
29839;BME280;18669;53.356;-1.464;2023-01-28T11:36:10;102109.13;;;8.25;100.00
29839;BME280;18669;53.356;-1.464;2023-01-28T11:38:54;102109.34;;;8.40;100.00
29839;BME280;18669;53.356;-1.464;2023-01-28T11:41:26;102107.91;;;8.69;100.00
29839;BME280;18669;53.356;-1.464;2023-01-28T11:43:53;102096.00;;;9.02;100.00
29839;BME280;18669;53.356;-1.464;2023-01-28T12:00:40;102093.38;;;10.27;100.00
29839;BME280;18669;53.356;-1.464;2023-01-28T12:03:31;102091.53;;;10.04;100.00
29839;BME280;18669;53.356;-1.464;2023-01-28T12:06:22;102100.09;;;9.69;100.00
29839;BME280;18669;53.356;-1.464;2023-01-28T12:17:53;102074.91;;;12.39;90.95
29839;BME280;18669;53.356;-1.464;2023-01-28T12:26:10;102057.75;;;15.73;62.07
29839;BME280;18669;53.356;-1.464;2023-01-28T12:34:26;102056.06;;;16.16;56.49
29839;BME280;18669;53.356;-1.464;2023-01-28T12:42:35;102045.16;;;13.37;68.92
29839;BME280;18669;53.356;-1.464;2023-01-28T12:45:16;102039.81;;;12.27;77.98
29839;BME280;18669;53.356;-1.464;2023-01-28T12:47:52;102039.06;;;11.79;87.22
29839;BME280;18669;53.356;-1.464;2023-01-28T12:50:23;102036.53;;;11.28;96.00
29839;BME280;18669;53.356;-1.464;2023-01-28T12:52:57;102033.03;;;10.98;100.00
29839;BME280;18669;53.356;-1.464;2023-01-28T12:56:35;102027.75;;;10.61;100.00
29839;BME280;18669;53.356;-1.464;2023-01-28T13:04:47;102023.16;;;10.01;100.00
29839;BME280;18669;53.356;-1.464;2023-01-28T13:07:17;102024.84;;;9.91;100.00
29839;BME280;18669;53.356;-1.464;2023-01-28T13:09:59;102021.38;;;9.97;100.00
29839;BME280;18669;53.356;-1.464;2023-01-28T13:12:31;102025.75;;;9.96;100.00
29839;BME280;18669;53.356;-1.464;2023-01-28T13:14:59;102020.50;;;9.98;100.00
29839;BME280;18669;53.356;-1.464;2023-01-28T13:17:28;102012.56;;;9.85;100.00
29839;BME280;18669;53.356;-1.464;2023-01-28T13:19:56;102022.19;;;9.83;100.00
29839;BME280;18669;53.356;-1.464;2023-01-28T13:22:31;102020.41;;;9.82;100.00
29839;BME280;18669;53.356;-1.464;2023-01-28T13:25:21;102027.41;;;9.77;100.00
29839;BME280;18669;53.356;-1.464;2023-01-28T13:30:45;102022.16;;;9.76;100.00
29839;BME280;18669;53.356;-1.464;2023-01-28T13:33:29;102026.50;;;9.75;100.00
29839;BME280;18669;53.356;-1.464;2023-01-28T13:35:55;102017.63;;;9.51;100.00
29839;BME280;18669;53.356;-1.464;2023-01-28T13:38:23;102024.59;;;9.45;100.00
29839;BME280;18669;53.356;-1.464;2023-01-28T13:40:57;102027.25;;;9.49;100.00
29839;BME280;18669;53.356;-1.464;2023-01-28T13:46:06;102038.50;;;9.30;100.00
29839;BME280;18669;53.356;-1.464;2023-01-28T13:51:18;102037.53;;;9.20;100.00
29839;BME280;18669;53.356;-1.464;2023-01-28T13:56:21;102035.69;;;9.08;100.00
29839;BME280;18669;53.356;-1.464;2023-01-28T14:18:14;102026.91;;;9.03;100.00
29839;BME280;18669;53.356;-1.464;2023-01-28T14:20:44;102023.31;;;8.93;100.00
29839;BME280;18669;53.356;-1.464;2023-01-28T14:23:16;102022.50;;;9.00;100.00
29839;BME280;18669;53.356;-1.464;2023-01-28T14:31:17;102035.59;;;8.95;100.00
29839;BME280;18669;53.356;-1.464;2023-01-28T14:33:47;102040.72;;;8.83;100.00
29839;BME280;18669;53.356;-1.464;2023-01-28T14:36:13;102044.44;;;9.05;100.00
29839;BME280;18669;53.356;-1.464;2023-01-28T14:38:41;102048.75;;;9.00;100.00
29839;BME280;18669;53.356;-1.464;2023-01-28T14:41:14;102050.50;;;8.97;100.00
29839;BME280;18669;53.356;-1.464;2023-01-28T14:43:46;102046.13;;;9.02;100.00
29839;BME280;18669;53.356;-1.464;2023-01-28T14:48:49;102039.13;;;8.99;100.00
29839;BME280;18669;53.356;-1.464;2023-01-28T14:57:03;102035.50;;;8.88;100.00
29839;BME280;18669;53.356;-1.464;2023-01-28T14:59:47;102040.06;;;9.04;100.00
29839;BME280;18669;53.356;-1.464;2023-01-28T15:02:23;102034.75;;;8.97;100.00
29839;BME280;18669;53.356;-1.464;2023-01-28T15:04:51;102042.53;;;8.87;100.00
29839;BME280;18669;53.356;-1.464;2023-01-28T15:07:25;102043.47;;;8.97;100.00